Corona Emblem — 3FHF8 — position and weather

sailwx.info

Track history (hours):
 
Tides and Currents Weather Stations Pressure Air Temp Water Temp Dewpoint Dewpoint Depression Visibility Wind Speed Wind Dir Waves Ship Positions

Corona Emblem

Last reported at 2016-Mar-19 12:26 UTC. Time now 2016-May-27 16:11 UTC.
Position N 22°10' E 113°06'.
Warning: this ship's position is months out of date.

Length 230 m; beam 36 m.

Type: Cargo ship. MMSI: 354224000.

Date/timePositionNaut miles runAvg speedWind from/ knotsBaromVisibWave heightAir tempDewpointWater temp
2016-Mar-19 12:26N 22°10' E 113°06'0 0.0
2016-Mar-19 11:32N 22°10' E 113°06'  
2016-Mar-16 08:24N 22°07' E 113°06'5 6.2
2016-Mar-16 07:32N 22°02' E 113°05'5 5.4
2016-Mar-16 06:33N 21°58' E 113°08'8 8.2
2016-Mar-16 05:33N 21°51' E 113°13'3 2.6
2016-Mar-16 04:25N 21°50' E 113°16'0 0.0
2016-Mar-16 03:13N 21°50' E 113°16'0 0.0
2016-Mar-15 16:25N 21°50' E 113°16'0 0.0
2016-Mar-15 15:13N 21°50' E 113°16'0 0.0
2016-Mar-15 14:31N 21°50' E 113°16'0 0.0
2016-Mar-15 13:31N 21°50' E 113°16'0 0.0
2016-Mar-15 12:25N 21°50' E 113°16'0 0.0
2016-Mar-15 11:31N 21°50' E 113°16'0 0.0
2016-Mar-15 10:31N 21°50' E 113°16'0 0.0
2016-Mar-15 09:31N 21°50' E 113°16'0 0.2
2016-Mar-15 08:34N 21°50' E 113°16'5 4.6
2016-Mar-15 07:33N 21°46' E 113°19'  
Track history (hours):
 
Tides and Currents Weather Stations Pressure Air Temp Water Temp Dewpoint Dewpoint Depression Visibility Wind Speed Wind Dir Waves Ship Positions

Corona Emblem

Last reported at 2016-Mar-19 12:26 UTC. Time now 2016-May-27 16:11 UTC.
Position N 22°10' E 113°06'.
Warning: this ship's position is months out of date.

Length 230 m; beam 36 m.

Type: Cargo ship. MMSI: 354224000.

Date/timePositionNaut miles runAvg speedWind from/ knotsBaromVisibWave heightAir tempDewpointWater temp
2016-Mar-19 12:26N 22°10' E 113°06'0 0.0
2016-Mar-19 11:32N 22°10' E 113°06'  
2016-Mar-16 08:24N 22°07' E 113°06'5 6.2
2016-Mar-16 07:32N 22°02' E 113°05'5 5.4
2016-Mar-16 06:33N 21°58' E 113°08'8 8.2
2016-Mar-16 05:33N 21°51' E 113°13'3 2.6
2016-Mar-16 04:25N 21°50' E 113°16'0 0.0
2016-Mar-16 03:13N 21°50' E 113°16'0 0.0
2016-Mar-15 16:25N 21°50' E 113°16'0 0.0
2016-Mar-15 15:13N 21°50' E 113°16'0 0.0
2016-Mar-15 14:31N 21°50' E 113°16'0 0.0
2016-Mar-15 13:31N 21°50' E 113°16'0 0.0
2016-Mar-15 12:25N 21°50' E 113°16'0 0.0
2016-Mar-15 11:31N 21°50' E 113°16'0 0.0
2016-Mar-15 10:31N 21°50' E 113°16'0 0.0
2016-Mar-15 09:31N 21°50' E 113°16'0 0.2
2016-Mar-15 08:34N 21°50' E 113°16'5 4.6
2016-Mar-15 07:33N 21°46' E 113°19'  

Dump ship's entire track history